Fehn Companion — V2GH6 — position and weather

sailwx.info

Track history (hours):
 
Tides and Currents Weather Stations Pressure Air Temp Water Temp Dewpoint Dewpoint Depression Visibility Wind Speed Wind Dir Waves Ship Positions

Fehn Companion

Last reported at 2018-Jul-21 09:30 UTC. Time now 2018-Jul-21 17:11 UTC.
Position N 56°09' E 014°49'.

Length 88 m; draft 4.1 m.

Type: Ship. MMSI: 305937000.

Date/timePositionNaut miles runAvg speedWind from/ knotsBaromVisibWave heightAir tempDewpointWater temp
2018-Jul-21 09:30N 56°09' E 014°49'2 3.1
2018-Jul-21 09:00N 56°08' E 014°49'3 6.7
2018-Jul-21 08:30N 56°05' E 014°51'4 8.6
2018-Jul-21 08:00N 56°01' E 014°53'4 8.7
2018-Jul-21 07:30N 55°56' E 014°52'4 8.9
2018-Jul-21 07:00N 55°52' E 014°50'4 8.9
2018-Jul-21 06:30N 55°48' E 014°49'4 8.8
2018-Jul-21 06:00N 55°43' E 014°47'4 8.7
2018-Jul-21 05:30N 55°39' E 014°45'4 8.6
2018-Jul-21 05:00N 55°35' E 014°43'4 8.4
2018-Jul-21 04:30N 55°31' E 014°42'4 8.0
2018-Jul-21 04:00N 55°27' E 014°41'4 7.6
2018-Jul-21 03:30N 55°23' E 014°38'4 8.1
2018-Jul-21 03:00N 55°20' E 014°34'5 8.1
2018-Jul-21 02:26N 55°17' E 014°28'3 8.0
2018-Jul-21 02:00N 55°14' E 014°25'4 8.0
2018-Jul-21 01:30N 55°11' E 014°20'58 8.3
2018-Jul-20 18:25N 55°18' E 012°39'3 8.1
2018-Jul-20 18:00N 55°21' E 012°38'4 8.7
2018-Jul-20 17:29N 55°26' E 012°40'4 8.7
2018-Jul-20 16:59N 55°30' E 012°41'4 8.6
2018-Jul-20 16:30N 55°34' E 012°42'4 8.6
2018-Jul-20 16:00N 55°38' E 012°41'4 8.6
2018-Jul-20 15:30N 55°43' E 012°41'4 8.7
2018-Jul-20 15:01N 55°47' E 012°41'4 8.3
2018-Jul-20 14:30N 55°51' E 012°39'4 8.5
2018-Jul-20 14:00N 55°55' E 012°38'4 8.5
2018-Jul-20 13:30N 55°60' E 012°38'4 8.0
2018-Jul-20 13:00N 56°04' E 012°38'5 9.1
2018-Jul-20 12:30N 56°06' E 012°32'6 9.1
2018-Jul-20 11:53N 56°10' E 012°23'29 8.5
2018-Jul-20 08:30N 56°34' E 011°56'6 8.8
2018-Jul-20 07:48N 56°40' E 011°53'3 8.9
2018-Jul-20 07:29N 56°43' E 011°51'4 8.7
2018-Jul-20 07:00N 56°47' E 011°50'5 8.6
2018-Jul-20 06:24N 56°52' E 011°47'4 8.4
2018-Jul-20 05:58N 56°55' E 011°44'4 7.8
2018-Jul-20 05:30N 56°59' E 011°42'4 7.7
2018-Jul-20 04:58N 57°02' E 011°39'4 7.6
2018-Jul-20 04:27N 57°06' E 011°37'3 7.6
2018-Jul-20 04:00N 57°09' E 011°35'4 7.8
2018-Jul-20 03:30N 57°13' E 011°33'4 8.1
2018-Jul-20 03:00N 57°17' E 011°31'4 8.4
2018-Jul-20 02:30N 57°21' E 011°29'4 8.6
2018-Jul-20 02:00N 57°25' E 011°26'4 8.2
2018-Jul-20 01:30N 57°29' E 011°22'5 8.4
2018-Jul-20 00:55N 57°32' E 011°15'3 8.4
2018-Jul-20 00:30N 57°34' E 011°10'5 8.9
2018-Jul-20 00:00N 57°37' E 011°04'4 8.8
2018-Jul-19 23:30N 57°40' E 010°58'4 8.3
2018-Jul-19 23:00N 57°43' E 010°53'4 8.4
2018-Jul-19 22:30N 57°46' E 010°47'4 8.5
2018-Jul-19 22:00N 57°47' E 010°40'5 9.7
2018-Jul-19 21:30N 57°48' E 010°31'5 9.4
2018-Jul-19 21:00N 57°48' E 010°22'5 9.2
2018-Jul-19 20:30N 57°48' E 010°13'5 9.2
2018-Jul-19 19:59N 57°48' E 010°04'4 9.0
2018-Jul-19 19:30N 57°48' E 009°56'4 8.7
2018-Jul-19 19:00N 57°49' E 009°48'5 8.6
2018-Jul-19 18:27N 57°49' E 009°39'4 8.8
2018-Jul-19 18:00N 57°49' E 009°32'5 8.9
2018-Jul-19 17:24N 57°50' E 009°22'8 9.0
2018-Jul-19 16:33N 57°50' E 009°07'1 9.5
2018-Jul-19 16:27N 57°50' E 009°06'22 9.2
2018-Jul-19 14:00N 57°52' E 008°24'5 8.9
2018-Jul-19 13:29N 57°53' E 008°15'4 8.7
2018-Jul-19 13:00N 57°53' E 008°07'4 8.6
2018-Jul-19 12:30N 57°53' E 007°59'4 8.8
2018-Jul-19 12:00N 57°54' E 007°51'4 8.8
2018-Jul-19 11:30N 57°54' E 007°43'4 8.7
2018-Jul-19 10:59N 57°54' E 007°34'4 8.7
2018-Jul-19 10:30N 57°55' E 007°26'4 8.6
2018-Jul-19 10:00N 57°54' E 007°18'4 8.8
2018-Jul-19 09:30N 57°55' E 007°10'4 8.5
2018-Jul-19 09:00N 57°55' E 007°02'4 8.5
2018-Jul-19 08:30N 57°56' E 006°54'4 8.5
2018-Jul-19 08:00N 57°57' E 006°46'4 8.6
2018-Jul-19 07:30N 57°59' E 006°39'4 8.5
2018-Jul-19 07:00N 58°00' E 006°31'5 8.9
2018-Jul-19 06:30N 58°03' E 006°25'5 9.5
2018-Jul-19 06:00N 58°07' E 006°19'5 9.4
2018-Jul-19 05:30N 58°10' E 006°12'5 9.4
2018-Jul-19 05:00N 58°13' E 006°05'5 9.4
2018-Jul-19 04:30N 58°16' E 005°58'5 9.6
2018-Jul-19 03:59N 58°19' E 005°52'5 9.4
2018-Jul-19 03:30N 58°22' E 005°45'5 9.6
2018-Jul-19 03:00N 58°26' E 005°39'5 9.4
2018-Jul-19 02:30N 58°29' E 005°33'5 9.4
2018-Jul-19 02:00N 58°33' E 005°28'5 9.8
2018-Jul-19 01:30N 58°37' E 005°23'5 9.7
2018-Jul-19 01:00N 58°41' E 005°18'5 9.6
2018-Jul-19 00:30N 58°46' E 005°14'5 9.5
2018-Jul-19 00:00N 58°50' E 005°09'5 9.4
2018-Jul-18 23:28N 58°54' E 005°05'4 8.9
2018-Jul-18 22:59N 58°58' E 005°00'4 8.8
2018-Jul-18 22:29N 59°01' E 004°56'54 9.0
2018-Jul-18 16:29N 59°54' E 004°35'5 9.9
2018-Jul-18 16:00N 59°59' E 004°34'5 9.7
2018-Jul-18 15:30N 60°04' E 004°34'5 9.5
2018-Jul-18 15:00N 60°09' E 004°34'5 9.4
2018-Jul-18 14:30N 60°13' E 004°33'9 9.3
2018-Jul-18 13:30N 60°23' E 004°31'5 9.6
2018-Jul-18 12:58N 60°28' E 004°30'4 9.3
2018-Jul-18 12:30N 60°32' E 004°30'5 9.2
2018-Jul-18 11:59N 60°37' E 004°29'5 9.4
2018-Jul-18 11:30N 60°41' E 004°27'9 8.9
2018-Jul-18 10:30N 60°50' E 004°24'5 9.1
2018-Jul-18 10:00N 60°55' E 004°23'4 9.1
2018-Jul-18 09:30N 60°59' E 004°23'5 9.3
2018-Jul-18 09:00N 61°04' E 004°22'4 9.1
2018-Jul-18 08:30N 61°08' E 004°22'5 9.2
2018-Jul-18 08:00N 61°13' E 004°22'5 9.3
2018-Jul-18 07:30N 61°17' E 004°23'5 9.2
2018-Jul-18 07:00N 61°22' E 004°23'4 9.0
2018-Jul-18 06:30N 61°27' E 004°23'5 9.3
2018-Jul-18 06:00N 61°31' E 004°23'5 9.4
2018-Jul-18 05:30N 61°36' E 004°22'5 9.3
2018-Jul-18 04:59N 61°41' E 004°24'5 9.5
2018-Jul-18 04:30N 61°45' E 004°27'5 9.4
2018-Jul-18 03:59N 61°49' E 004°31'5 9.8
2018-Jul-18 03:30N 61°54' E 004°35'5 9.6
2018-Jul-18 03:00N 61°58' E 004°38'5 9.8
2018-Jul-18 02:30N 62°03' E 004°43'5 9.8
2018-Jul-18 02:00N 62°07' E 004°48'5 9.7
2018-Jul-18 01:30N 62°11' E 004°53'5 9.6
2018-Jul-18 01:00N 62°15' E 004°59'5 9.6
2018-Jul-18 00:29N 62°19' E 005°06'5 9.5
2018-Jul-18 00:00N 62°22' E 005°13'5 9.4
2018-Jul-17 23:30N 62°26' E 005°20'5 9.4
2018-Jul-17 23:00N 62°29' E 005°27'5 9.3
2018-Jul-17 22:29N 62°33' E 005°34'5 9.4
2018-Jul-17 22:00N 62°36' E 005°40'5 9.6
2018-Jul-17 21:30N 62°40' E 005°47'5 9.6
2018-Jul-17 21:00N 62°44' E 005°53'5 9.5
2018-Jul-17 20:30N 62°47' E 006°01'5 9.1
2018-Jul-17 19:59N 62°50' E 006°08'4 9.0
2018-Jul-17 19:29N 62°53' E 006°16'4 8.9
2018-Jul-17 19:00N 62°55' E 006°24'5 9.0
2018-Jul-17 18:29N 62°58' E 006°32'5 9.3
2018-Jul-17 18:00N 63°00' E 006°40'5 9.4
2018-Jul-17 17:30N 63°03' E 006°49'5 9.2
2018-Jul-17 17:00N 63°05' E 006°58'5 9.3
2018-Jul-17 16:30N 63°08' E 007°06'5 9.1
2018-Jul-17 16:00N 63°10' E 007°15'4 8.8
2018-Jul-17 15:30N 63°13' E 007°23'5 9.0
2018-Jul-17 14:59N 63°15' E 007°32'4 8.9
2018-Jul-17 14:30N 63°14' E 007°42'4 8.7
2018-Jul-17 14:00N 63°11' E 007°48'4 8.9
2018-Jul-17 13:30N 63°08' E 007°54'4 8.7
2018-Jul-17 13:00N 63°03' E 007°54'5 9.2
2018-Jul-17 12:30N 63°00' E 007°47'5 9.3
2018-Jul-17 12:00N 62°58' E 007°38'4 8.6
2018-Jul-17 11:30N 62°56' E 007°29'3 6.0
2018-Jul-17 11:00N 62°57' E 007°24'0 0.0
2018-Jul-17 10:30N 62°57' E 007°24'0 0.0
2018-Jul-17 10:00N 62°57' E 007°24'0 0.0
2018-Jul-17 09:30N 62°57' E 007°24'0 0.0
2018-Jul-17 09:00N 62°57' E 007°24'0 0.0
2018-Jul-17 08:30N 62°57' E 007°24'0 0.0
2018-Jul-17 08:00N 62°57' E 007°24'0 0.0
2018-Jul-17 07:30N 62°57' E 007°24'0 0.0
2018-Jul-17 07:00N 62°57' E 007°24'0 0.1
2018-Jul-17 06:30N 62°57' E 007°24'0 0.1
2018-Jul-17 06:00N 62°57' E 007°24'0 0.0
2018-Jul-17 05:30N 62°57' E 007°24'0 0.0
2018-Jul-17 05:00N 62°57' E 007°24'0 0.0
2018-Jul-17 04:27N 62°57' E 007°24'0 0.0
2018-Jul-17 04:00N 62°57' E 007°24'0 0.0
2018-Jul-17 03:27N 62°57' E 007°24'0 0.0
2018-Jul-17 03:00N 62°57' E 007°24'0 0.0
2018-Jul-17 02:30N 62°57' E 007°24'0 0.0
2018-Jul-17 02:00N 62°57' E 007°24'0 0.0
2018-Jul-17 01:30N 62°57' E 007°24'0 0.0
2018-Jul-17 01:00N 62°57' E 007°24'0 0.0
2018-Jul-17 00:27N 62°57' E 007°24'0 0.0
2018-Jul-16 23:30N 62°57' E 007°24'0 0.0
2018-Jul-16 23:00N 62°57' E 007°24'0 0.0
2018-Jul-16 22:30N 62°57' E 007°24'0 0.0
2018-Jul-16 22:00N 62°57' E 007°24'0 0.0
2018-Jul-16 21:30N 62°57' E 007°24'0 0.0
2018-Jul-16 21:00N 62°57' E 007°24'0 0.0
2018-Jul-16 20:30N 62°57' E 007°24'0 0.0
2018-Jul-16 20:00N 62°57' E 007°24'0 0.0
2018-Jul-16 19:30N 62°57' E 007°24'0 0.0
2018-Jul-16 19:00N 62°57' E 007°24'0 0.0
2018-Jul-16 18:30N 62°57' E 007°24'0 0.0
2018-Jul-16 18:00N 62°57' E 007°24'0 0.0
2018-Jul-16 17:30N 62°57' E 007°24'0 0.0
2018-Jul-16 16:59N 62°57' E 007°24'0 0.0
2018-Jul-16 16:30N 62°57' E 007°24'0 0.0
2018-Jul-16 16:00N 62°57' E 007°24'0 0.0
2018-Jul-16 15:30N 62°57' E 007°24'0 0.0
2018-Jul-16 15:00N 62°57' E 007°24'3 6.6
2018-Jul-16 14:30N 62°56' E 007°30'510.2
2018-Jul-16 13:59N 62°59' E 007°41'4 8.4
2018-Jul-16 13:30N 63°03' E 007°41'510.6
2018-Jul-16 13:00N 63°08' E 007°41'510.4
2018-Jul-16 12:30N 63°13' E 007°46'4 9.0
2018-Jul-16 12:00N 63°15' E 007°37'510.2
2018-Jul-16 11:31N 63°13' E 007°26'510.5
2018-Jul-16 11:00N 63°11' E 007°16'510.6
2018-Jul-16 10:31N 63°08' E 007°06'610.6
2018-Jul-16 09:59N 63°05' E 006°56'510.4
2018-Jul-16 09:30N 63°02' E 006°47'510.2
2018-Jul-16 09:00N 62°59' E 006°37'510.1
2018-Jul-16 08:30N 62°56' E 006°28'510.3
2018-Jul-16 08:00N 62°54' E 006°18'510.1
2018-Jul-16 07:30N 62°51' E 006°09'5 9.9
2018-Jul-16 07:00N 62°48' E 006°01'5 9.7
2018-Jul-16 06:30N 62°44' E 005°54'5 9.4
2018-Jul-16 06:00N 62°40' E 005°48'5 9.5
2018-Jul-16 05:30N 62°37' E 005°40'5 9.5
2018-Jul-16 05:00N 62°33' E 005°33'5 9.6
2018-Jul-16 04:30N 62°30' E 005°27'5 9.6
2018-Jul-16 04:00N 62°26' E 005°20'5 9.4
2018-Jul-16 03:30N 62°22' E 005°14'5 9.3
2018-Jul-16 02:59N 62°19' E 005°07'5 9.6
2018-Jul-16 02:29N 62°15' E 005°00'5 9.8
2018-Jul-16 02:00N 62°12' E 004°54'5 9.9
2018-Jul-16 01:30N 62°07' E 004°49'5 9.7
2018-Jul-16 01:00N 62°03' E 004°43'5 9.8
2018-Jul-16 00:29N 61°58' E 004°39'5 9.8
2018-Jul-16 00:00N 61°54' E 004°35'510.0
2018-Jul-15 23:29N 61°49' E 004°31'510.4
2018-Jul-15 23:00N 61°44' E 004°27'510.4
2018-Jul-15 22:30N 61°39' E 004°24'510.2
2018-Jul-15 21:59N 61°34' E 004°24'510.3
2018-Jul-15 21:29N 61°29' E 004°23'510.5
2018-Jul-15 21:00N 61°24' E 004°23'510.5
2018-Jul-15 20:30N 61°19' E 004°23'610.5
2018-Jul-15 19:58N 61°13' E 004°23'510.6
2018-Jul-15 19:29N 61°08' E 004°23'510.5
2018-Jul-15 19:00N 61°03' E 004°23'510.4
2018-Jul-15 18:30N 60°58' E 004°23'510.3
2018-Jul-15 18:00N 60°53' E 004°24'510.0
2018-Jul-15 17:29N 60°47' E 004°25'510.0
2018-Jul-15 16:59N 60°42' E 004°26'5 9.9
2018-Jul-15 16:30N 60°38' E 004°27'5 9.6
2018-Jul-15 16:00N 60°33' E 004°28'5 9.5
2018-Jul-15 15:30N 60°28' E 004°29'5 9.2
2018-Jul-15 15:00N 60°24' E 004°29'5 9.6
2018-Jul-15 14:30N 60°19' E 004°31'5 9.9
2018-Jul-15 14:00N 60°14' E 004°32'5 9.6
2018-Jul-15 13:29N 60°09' E 004°32'5 9.7
2018-Jul-15 13:00N 60°04' E 004°32'510.0
2018-Jul-15 12:30N 59°59' E 004°34'510.3
2018-Jul-15 11:59N 59°54' E 004°35'4710.4
2018-Jul-15 07:27N 59°07' E 004°50'510.5
2018-Jul-15 07:00N 59°03' E 004°54'510.4
2018-Jul-15 06:28N 58°59' E 004°59'510.1
2018-Jul-15 06:00N 58°54' E 005°04'510.3
2018-Jul-15 05:30N 58°50' E 005°10'510.3
2018-Jul-15 05:00N 58°46' E 005°16'510.3
2018-Jul-15 04:30N 58°42' E 005°21'5 9.8
2018-Jul-15 04:00N 58°37' E 005°25'5 9.7
2018-Jul-15 03:30N 58°33' E 005°29'5 9.8
2018-Jul-15 03:00N 58°29' E 005°34'5 9.8
2018-Jul-15 02:30N 58°25' E 005°39'5 9.7
2018-Jul-15 02:00N 58°21' E 005°44'5 9.8
2018-Jul-15 01:30N 58°17' E 005°50'5 9.6
2018-Jul-15 01:00N 58°13' E 005°55'5 9.2
2018-Jul-15 00:30N 58°09' E 005°59'5 9.3
2018-Jul-15 00:00N 58°05' E 006°03'5 9.3
2018-Jul-14 23:30N 58°01' E 006°08'105 5.9
2018-Jul-14 05:52N 56°41' E 008°14'26 6.3
2018-Jul-14 01:42N 56°18' E 007°50'2 8.0
2018-Jul-14 01:30N 56°17' E 007°49'4 8.0
2018-Jul-14 00:59N 56°13' E 007°47'4 7.9
2018-Jul-14 00:27N 56°09' E 007°45'111 5.1
2018-Jul-13 02:36N 54°19' E 008°18'0 0.0
2018-Jul-12 16:54N 54°19' E 008°18'0 0.0
2018-Jul-12 16:12N 54°19' E 008°18'0 0.1
2018-Jul-12 16:00N 54°19' E 008°18'0 0.0
2018-Jul-12 15:30N 54°19' E 008°18'0 0.0
2018-Jul-12 15:00N 54°19' E 008°18'0 0.0
2018-Jul-12 14:30N 54°19' E 008°18'0 0.0
2018-Jul-12 13:57N 54°19' E 008°18'0 0.0
2018-Jul-12 13:30N 54°19' E 008°18'0 0.0
2018-Jul-12 13:00N 54°19' E 008°18'0 0.1
2018-Jul-12 12:30N 54°19' E 008°18'0 0.0
2018-Jul-12 04:21N 54°19' E 008°18'0 0.0
2018-Jul-12 04:00N 54°19' E 008°18'0 0.0
2018-Jul-12 03:24N 54°19' E 008°18'0 0.0
2018-Jul-12 03:00N 54°19' E 008°18'0 0.0
2018-Jul-12 02:21N 54°19' E 008°18'0 0.0
2018-Jul-12 01:54N 54°19' E 008°18'0 0.0
2018-Jul-12 01:30N 54°19' E 008°18'0 0.0
2018-Jul-12 00:54N 54°19' E 008°18'0 0.0
2018-Jul-12 00:30N 54°19' E 008°18'0 0.0
2018-Jul-11 16:24N 54°19' E 008°18'  
Track history (hours):
 
Tides and Currents Weather Stations Pressure Air Temp Water Temp Dewpoint Dewpoint Depression Visibility Wind Speed Wind Dir Waves Ship Positions

Fehn Companion

Last reported at 2018-Jul-21 09:30 UTC. Time now 2018-Jul-21 17:11 UTC.
Position N 56°09' E 014°49'.

Length 88 m; draft 4.1 m.

Type: Ship. MMSI: 305937000.

Date/timePositionNaut miles runAvg speedWind from/ knotsBaromVisibWave heightAir tempDewpointWater temp
2018-Jul-21 09:30N 56°09' E 014°49'2 3.1
2018-Jul-21 09:00N 56°08' E 014°49'3 6.7
2018-Jul-21 08:30N 56°05' E 014°51'4 8.6
2018-Jul-21 08:00N 56°01' E 014°53'4 8.7
2018-Jul-21 07:30N 55°56' E 014°52'4 8.9
2018-Jul-21 07:00N 55°52' E 014°50'4 8.9
2018-Jul-21 06:30N 55°48' E 014°49'4 8.8
2018-Jul-21 06:00N 55°43' E 014°47'4 8.7
2018-Jul-21 05:30N 55°39' E 014°45'4 8.6
2018-Jul-21 05:00N 55°35' E 014°43'4 8.4
2018-Jul-21 04:30N 55°31' E 014°42'4 8.0
2018-Jul-21 04:00N 55°27' E 014°41'4 7.6
2018-Jul-21 03:30N 55°23' E 014°38'4 8.1
2018-Jul-21 03:00N 55°20' E 014°34'5 8.1
2018-Jul-21 02:26N 55°17' E 014°28'3 8.0
2018-Jul-21 02:00N 55°14' E 014°25'4 8.0
2018-Jul-21 01:30N 55°11' E 014°20'58 8.3
2018-Jul-20 18:25N 55°18' E 012°39'3 8.1
2018-Jul-20 18:00N 55°21' E 012°38'4 8.7
2018-Jul-20 17:29N 55°26' E 012°40'4 8.7
2018-Jul-20 16:59N 55°30' E 012°41'4 8.6
2018-Jul-20 16:30N 55°34' E 012°42'4 8.6
2018-Jul-20 16:00N 55°38' E 012°41'4 8.6
2018-Jul-20 15:30N 55°43' E 012°41'4 8.7
2018-Jul-20 15:01N 55°47' E 012°41'4 8.3
2018-Jul-20 14:30N 55°51' E 012°39'4 8.5
2018-Jul-20 14:00N 55°55' E 012°38'4 8.5
2018-Jul-20 13:30N 55°60' E 012°38'4 8.0
2018-Jul-20 13:00N 56°04' E 012°38'5 9.1
2018-Jul-20 12:30N 56°06' E 012°32'6 9.1
2018-Jul-20 11:53N 56°10' E 012°23'29 8.5
2018-Jul-20 08:30N 56°34' E 011°56'6 8.8
2018-Jul-20 07:48N 56°40' E 011°53'3 8.9
2018-Jul-20 07:29N 56°43' E 011°51'4 8.7
2018-Jul-20 07:00N 56°47' E 011°50'5 8.6
2018-Jul-20 06:24N 56°52' E 011°47'4 8.4
2018-Jul-20 05:58N 56°55' E 011°44'4 7.8
2018-Jul-20 05:30N 56°59' E 011°42'4 7.7
2018-Jul-20 04:58N 57°02' E 011°39'4 7.6
2018-Jul-20 04:27N 57°06' E 011°37'3 7.6
2018-Jul-20 04:00N 57°09' E 011°35'4 7.8
2018-Jul-20 03:30N 57°13' E 011°33'4 8.1
2018-Jul-20 03:00N 57°17' E 011°31'4 8.4
2018-Jul-20 02:30N 57°21' E 011°29'4 8.6
2018-Jul-20 02:00N 57°25' E 011°26'4 8.2
2018-Jul-20 01:30N 57°29' E 011°22'5 8.4
2018-Jul-20 00:55N 57°32' E 011°15'3 8.4
2018-Jul-20 00:30N 57°34' E 011°10'5 8.9
2018-Jul-20 00:00N 57°37' E 011°04'4 8.8
2018-Jul-19 23:30N 57°40' E 010°58'4 8.3
2018-Jul-19 23:00N 57°43' E 010°53'4 8.4
2018-Jul-19 22:30N 57°46' E 010°47'4 8.5
2018-Jul-19 22:00N 57°47' E 010°40'5 9.7
2018-Jul-19 21:30N 57°48' E 010°31'5 9.4
2018-Jul-19 21:00N 57°48' E 010°22'5 9.2
2018-Jul-19 20:30N 57°48' E 010°13'5 9.2
2018-Jul-19 19:59N 57°48' E 010°04'4 9.0
2018-Jul-19 19:30N 57°48' E 009°56'4 8.7
2018-Jul-19 19:00N 57°49' E 009°48'5 8.6
2018-Jul-19 18:27N 57°49' E 009°39'4 8.8
2018-Jul-19 18:00N 57°49' E 009°32'5 8.9
2018-Jul-19 17:24N 57°50' E 009°22'8 9.0
2018-Jul-19 16:33N 57°50' E 009°07'1 9.5
2018-Jul-19 16:27N 57°50' E 009°06'22 9.2
2018-Jul-19 14:00N 57°52' E 008°24'5 8.9
2018-Jul-19 13:29N 57°53' E 008°15'4 8.7
2018-Jul-19 13:00N 57°53' E 008°07'4 8.6
2018-Jul-19 12:30N 57°53' E 007°59'4 8.8
2018-Jul-19 12:00N 57°54' E 007°51'4 8.8
2018-Jul-19 11:30N 57°54' E 007°43'4 8.7
2018-Jul-19 10:59N 57°54' E 007°34'4 8.7
2018-Jul-19 10:30N 57°55' E 007°26'4 8.6
2018-Jul-19 10:00N 57°54' E 007°18'4 8.8
2018-Jul-19 09:30N 57°55' E 007°10'4 8.5
2018-Jul-19 09:00N 57°55' E 007°02'4 8.5
2018-Jul-19 08:30N 57°56' E 006°54'4 8.5
2018-Jul-19 08:00N 57°57' E 006°46'4 8.6
2018-Jul-19 07:30N 57°59' E 006°39'4 8.5
2018-Jul-19 07:00N 58°00' E 006°31'5 8.9
2018-Jul-19 06:30N 58°03' E 006°25'5 9.5
2018-Jul-19 06:00N 58°07' E 006°19'5 9.4
2018-Jul-19 05:30N 58°10' E 006°12'5 9.4
2018-Jul-19 05:00N 58°13' E 006°05'5 9.4
2018-Jul-19 04:30N 58°16' E 005°58'5 9.6
2018-Jul-19 03:59N 58°19' E 005°52'5 9.4
2018-Jul-19 03:30N 58°22' E 005°45'5 9.6
2018-Jul-19 03:00N 58°26' E 005°39'5 9.4
2018-Jul-19 02:30N 58°29' E 005°33'5 9.4
2018-Jul-19 02:00N 58°33' E 005°28'5 9.8
2018-Jul-19 01:30N 58°37' E 005°23'5 9.7
2018-Jul-19 01:00N 58°41' E 005°18'5 9.6
2018-Jul-19 00:30N 58°46' E 005°14'5 9.5
2018-Jul-19 00:00N 58°50' E 005°09'5 9.4
2018-Jul-18 23:28N 58°54' E 005°05'4 8.9
2018-Jul-18 22:59N 58°58' E 005°00'4 8.8
2018-Jul-18 22:29N 59°01' E 004°56'54 9.0
2018-Jul-18 16:29N 59°54' E 004°35'5 9.9
2018-Jul-18 16:00N 59°59' E 004°34'5 9.7
2018-Jul-18 15:30N 60°04' E 004°34'5 9.5
2018-Jul-18 15:00N 60°09' E 004°34'5 9.4
2018-Jul-18 14:30N 60°13' E 004°33'9 9.3
2018-Jul-18 13:30N 60°23' E 004°31'5 9.6
2018-Jul-18 12:58N 60°28' E 004°30'4 9.3
2018-Jul-18 12:30N 60°32' E 004°30'5 9.2
2018-Jul-18 11:59N 60°37' E 004°29'5 9.4
2018-Jul-18 11:30N 60°41' E 004°27'9 8.9
2018-Jul-18 10:30N 60°50' E 004°24'5 9.1
2018-Jul-18 10:00N 60°55' E 004°23'4 9.1
2018-Jul-18 09:30N 60°59' E 004°23'5 9.3
2018-Jul-18 09:00N 61°04' E 004°22'4 9.1
2018-Jul-18 08:30N 61°08' E 004°22'5 9.2
2018-Jul-18 08:00N 61°13' E 004°22'5 9.3
2018-Jul-18 07:30N 61°17' E 004°23'5 9.2
2018-Jul-18 07:00N 61°22' E 004°23'4 9.0
2018-Jul-18 06:30N 61°27' E 004°23'5 9.3
2018-Jul-18 06:00N 61°31' E 004°23'5 9.4
2018-Jul-18 05:30N 61°36' E 004°22'5 9.3
2018-Jul-18 04:59N 61°41' E 004°24'5 9.5
2018-Jul-18 04:30N 61°45' E 004°27'5 9.4
2018-Jul-18 03:59N 61°49' E 004°31'5 9.8
2018-Jul-18 03:30N 61°54' E 004°35'5 9.6
2018-Jul-18 03:00N 61°58' E 004°38'5 9.8
2018-Jul-18 02:30N 62°03' E 004°43'5 9.8
2018-Jul-18 02:00N 62°07' E 004°48'5 9.7
2018-Jul-18 01:30N 62°11' E 004°53'5 9.6
2018-Jul-18 01:00N 62°15' E 004°59'5 9.6
2018-Jul-18 00:29N 62°19' E 005°06'5 9.5
2018-Jul-18 00:00N 62°22' E 005°13'5 9.4
2018-Jul-17 23:30N 62°26' E 005°20'5 9.4
2018-Jul-17 23:00N 62°29' E 005°27'5 9.3
2018-Jul-17 22:29N 62°33' E 005°34'5 9.4
2018-Jul-17 22:00N 62°36' E 005°40'5 9.6
2018-Jul-17 21:30N 62°40' E 005°47'5 9.6
2018-Jul-17 21:00N 62°44' E 005°53'5 9.5
2018-Jul-17 20:30N 62°47' E 006°01'5 9.1
2018-Jul-17 19:59N 62°50' E 006°08'4 9.0
2018-Jul-17 19:29N 62°53' E 006°16'4 8.9
2018-Jul-17 19:00N 62°55' E 006°24'5 9.0
2018-Jul-17 18:29N 62°58' E 006°32'5 9.3
2018-Jul-17 18:00N 63°00' E 006°40'5 9.4
2018-Jul-17 17:30N 63°03' E 006°49'5 9.2
2018-Jul-17 17:00N 63°05' E 006°58'5 9.3
2018-Jul-17 16:30N 63°08' E 007°06'5 9.1
2018-Jul-17 16:00N 63°10' E 007°15'4 8.8
2018-Jul-17 15:30N 63°13' E 007°23'5 9.0
2018-Jul-17 14:59N 63°15' E 007°32'4 8.9
2018-Jul-17 14:30N 63°14' E 007°42'4 8.7
2018-Jul-17 14:00N 63°11' E 007°48'4 8.9
2018-Jul-17 13:30N 63°08' E 007°54'4 8.7
2018-Jul-17 13:00N 63°03' E 007°54'5 9.2
2018-Jul-17 12:30N 63°00' E 007°47'5 9.3
2018-Jul-17 12:00N 62°58' E 007°38'4 8.6
2018-Jul-17 11:30N 62°56' E 007°29'3 6.0
2018-Jul-17 11:00N 62°57' E 007°24'0 0.0
2018-Jul-17 10:30N 62°57' E 007°24'0 0.0
2018-Jul-17 10:00N 62°57' E 007°24'0 0.0
2018-Jul-17 09:30N 62°57' E 007°24'0 0.0
2018-Jul-17 09:00N 62°57' E 007°24'0 0.0
2018-Jul-17 08:30N 62°57' E 007°24'0 0.0
2018-Jul-17 08:00N 62°57' E 007°24'0 0.0
2018-Jul-17 07:30N 62°57' E 007°24'0 0.0
2018-Jul-17 07:00N 62°57' E 007°24'0 0.1
2018-Jul-17 06:30N 62°57' E 007°24'0 0.1
2018-Jul-17 06:00N 62°57' E 007°24'0 0.0
2018-Jul-17 05:30N 62°57' E 007°24'0 0.0
2018-Jul-17 05:00N 62°57' E 007°24'0 0.0
2018-Jul-17 04:27N 62°57' E 007°24'0 0.0
2018-Jul-17 04:00N 62°57' E 007°24'0 0.0
2018-Jul-17 03:27N 62°57' E 007°24'0 0.0
2018-Jul-17 03:00N 62°57' E 007°24'0 0.0
2018-Jul-17 02:30N 62°57' E 007°24'0 0.0
2018-Jul-17 02:00N 62°57' E 007°24'0 0.0
2018-Jul-17 01:30N 62°57' E 007°24'0 0.0
2018-Jul-17 01:00N 62°57' E 007°24'0 0.0
2018-Jul-17 00:27N 62°57' E 007°24'0 0.0
2018-Jul-16 23:30N 62°57' E 007°24'0 0.0
2018-Jul-16 23:00N 62°57' E 007°24'0 0.0
2018-Jul-16 22:30N 62°57' E 007°24'0 0.0
2018-Jul-16 22:00N 62°57' E 007°24'0 0.0
2018-Jul-16 21:30N 62°57' E 007°24'0 0.0
2018-Jul-16 21:00N 62°57' E 007°24'0 0.0
2018-Jul-16 20:30N 62°57' E 007°24'0 0.0
2018-Jul-16 20:00N 62°57' E 007°24'0 0.0
2018-Jul-16 19:30N 62°57' E 007°24'0 0.0
2018-Jul-16 19:00N 62°57' E 007°24'0 0.0
2018-Jul-16 18:30N 62°57' E 007°24'0 0.0
2018-Jul-16 18:00N 62°57' E 007°24'0 0.0
2018-Jul-16 17:30N 62°57' E 007°24'0 0.0
2018-Jul-16 16:59N 62°57' E 007°24'0 0.0
2018-Jul-16 16:30N 62°57' E 007°24'0 0.0
2018-Jul-16 16:00N 62°57' E 007°24'0 0.0
2018-Jul-16 15:30N 62°57' E 007°24'0 0.0
2018-Jul-16 15:00N 62°57' E 007°24'3 6.6
2018-Jul-16 14:30N 62°56' E 007°30'510.2
2018-Jul-16 13:59N 62°59' E 007°41'4 8.4
2018-Jul-16 13:30N 63°03' E 007°41'510.6
2018-Jul-16 13:00N 63°08' E 007°41'510.4
2018-Jul-16 12:30N 63°13' E 007°46'4 9.0
2018-Jul-16 12:00N 63°15' E 007°37'510.2
2018-Jul-16 11:31N 63°13' E 007°26'510.5
2018-Jul-16 11:00N 63°11' E 007°16'510.6
2018-Jul-16 10:31N 63°08' E 007°06'610.6
2018-Jul-16 09:59N 63°05' E 006°56'510.4
2018-Jul-16 09:30N 63°02' E 006°47'510.2
2018-Jul-16 09:00N 62°59' E 006°37'510.1
2018-Jul-16 08:30N 62°56' E 006°28'510.3
2018-Jul-16 08:00N 62°54' E 006°18'510.1
2018-Jul-16 07:30N 62°51' E 006°09'5 9.9
2018-Jul-16 07:00N 62°48' E 006°01'5 9.7
2018-Jul-16 06:30N 62°44' E 005°54'5 9.4
2018-Jul-16 06:00N 62°40' E 005°48'5 9.5
2018-Jul-16 05:30N 62°37' E 005°40'5 9.5
2018-Jul-16 05:00N 62°33' E 005°33'5 9.6
2018-Jul-16 04:30N 62°30' E 005°27'5 9.6
2018-Jul-16 04:00N 62°26' E 005°20'5 9.4
2018-Jul-16 03:30N 62°22' E 005°14'5 9.3
2018-Jul-16 02:59N 62°19' E 005°07'5 9.6
2018-Jul-16 02:29N 62°15' E 005°00'5 9.8
2018-Jul-16 02:00N 62°12' E 004°54'5 9.9
2018-Jul-16 01:30N 62°07' E 004°49'5 9.7
2018-Jul-16 01:00N 62°03' E 004°43'5 9.8
2018-Jul-16 00:29N 61°58' E 004°39'5 9.8
2018-Jul-16 00:00N 61°54' E 004°35'510.0
2018-Jul-15 23:29N 61°49' E 004°31'510.4
2018-Jul-15 23:00N 61°44' E 004°27'510.4
2018-Jul-15 22:30N 61°39' E 004°24'510.2
2018-Jul-15 21:59N 61°34' E 004°24'510.3
2018-Jul-15 21:29N 61°29' E 004°23'510.5
2018-Jul-15 21:00N 61°24' E 004°23'510.5
2018-Jul-15 20:30N 61°19' E 004°23'610.5
2018-Jul-15 19:58N 61°13' E 004°23'510.6
2018-Jul-15 19:29N 61°08' E 004°23'510.5
2018-Jul-15 19:00N 61°03' E 004°23'510.4
2018-Jul-15 18:30N 60°58' E 004°23'510.3
2018-Jul-15 18:00N 60°53' E 004°24'510.0
2018-Jul-15 17:29N 60°47' E 004°25'510.0
2018-Jul-15 16:59N 60°42' E 004°26'5 9.9
2018-Jul-15 16:30N 60°38' E 004°27'5 9.6
2018-Jul-15 16:00N 60°33' E 004°28'5 9.5
2018-Jul-15 15:30N 60°28' E 004°29'5 9.2
2018-Jul-15 15:00N 60°24' E 004°29'5 9.6
2018-Jul-15 14:30N 60°19' E 004°31'5 9.9
2018-Jul-15 14:00N 60°14' E 004°32'5 9.6
2018-Jul-15 13:29N 60°09' E 004°32'5 9.7
2018-Jul-15 13:00N 60°04' E 004°32'510.0
2018-Jul-15 12:30N 59°59' E 004°34'510.3
2018-Jul-15 11:59N 59°54' E 004°35'4710.4
2018-Jul-15 07:27N 59°07' E 004°50'510.5
2018-Jul-15 07:00N 59°03' E 004°54'510.4
2018-Jul-15 06:28N 58°59' E 004°59'510.1
2018-Jul-15 06:00N 58°54' E 005°04'510.3
2018-Jul-15 05:30N 58°50' E 005°10'510.3
2018-Jul-15 05:00N 58°46' E 005°16'510.3
2018-Jul-15 04:30N 58°42' E 005°21'5 9.8
2018-Jul-15 04:00N 58°37' E 005°25'5 9.7
2018-Jul-15 03:30N 58°33' E 005°29'5 9.8
2018-Jul-15 03:00N 58°29' E 005°34'5 9.8
2018-Jul-15 02:30N 58°25' E 005°39'5 9.7
2018-Jul-15 02:00N 58°21' E 005°44'5 9.8
2018-Jul-15 01:30N 58°17' E 005°50'5 9.6
2018-Jul-15 01:00N 58°13' E 005°55'5 9.2
2018-Jul-15 00:30N 58°09' E 005°59'5 9.3
2018-Jul-15 00:00N 58°05' E 006°03'5 9.3
2018-Jul-14 23:30N 58°01' E 006°08'105 5.9
2018-Jul-14 05:52N 56°41' E 008°14'26 6.3
2018-Jul-14 01:42N 56°18' E 007°50'2 8.0
2018-Jul-14 01:30N 56°17' E 007°49'4 8.0
2018-Jul-14 00:59N 56°13' E 007°47'4 7.9
2018-Jul-14 00:27N 56°09' E 007°45'111 5.1
2018-Jul-13 02:36N 54°19' E 008°18'0 0.0
2018-Jul-12 16:54N 54°19' E 008°18'0 0.0
2018-Jul-12 16:12N 54°19' E 008°18'0 0.1
2018-Jul-12 16:00N 54°19' E 008°18'0 0.0
2018-Jul-12 15:30N 54°19' E 008°18'0 0.0
2018-Jul-12 15:00N 54°19' E 008°18'0 0.0
2018-Jul-12 14:30N 54°19' E 008°18'0 0.0
2018-Jul-12 13:57N 54°19' E 008°18'0 0.0
2018-Jul-12 13:30N 54°19' E 008°18'0 0.0
2018-Jul-12 13:00N 54°19' E 008°18'0 0.1
2018-Jul-12 12:30N 54°19' E 008°18'0 0.0
2018-Jul-12 04:21N 54°19' E 008°18'0 0.0
2018-Jul-12 04:00N 54°19' E 008°18'0 0.0
2018-Jul-12 03:24N 54°19' E 008°18'0 0.0
2018-Jul-12 03:00N 54°19' E 008°18'0 0.0
2018-Jul-12 02:21N 54°19' E 008°18'0 0.0
2018-Jul-12 01:54N 54°19' E 008°18'0 0.0
2018-Jul-12 01:30N 54°19' E 008°18'0 0.0
2018-Jul-12 00:54N 54°19' E 008°18'0 0.0
2018-Jul-12 00:30N 54°19' E 008°18'0 0.0
2018-Jul-11 16:24N 54°19' E 008°18'  

Dump ship's entire track history